createdAt,value
2018-12-21T00:02:15.303Z,83.00
2018-12-21T00:04:42.947Z,80.80
2018-12-21T00:07:10.717Z,83.10
2018-12-21T00:09:38.335Z,83.20
2018-12-21T00:14:33.691Z,83.40
2018-12-21T00:17:01.304Z,83.40
2018-12-21T00:19:28.954Z,83.40
2018-12-21T00:26:52.265Z,83.50
2018-12-21T00:31:53.253Z,83.30
2018-12-21T00:34:26.561Z,83.30
2018-12-21T00:42:00.590Z,84.00
2018-12-21T00:49:27.998Z,83.80
2018-12-21T00:54:23.458Z,83.60
2018-12-21T01:14:05.807Z,84.00
2018-12-21T01:16:33.663Z,84.20
2018-12-21T01:19:01.710Z,84.30
2018-12-21T01:21:29.829Z,84.30
2018-12-21T01:23:57.716Z,84.30
2018-12-21T01:26:25.371Z,84.30
2018-12-21T01:28:53.008Z,84.30
2018-12-21T01:31:20.808Z,84.40
2018-12-21T02:03:21.072Z,84.00
2018-12-21T02:05:48.893Z,84.20
2018-12-21T02:15:39.980Z,83.70
2018-12-21T02:18:07.630Z,83.60
2018-12-21T02:20:35.329Z,84.80
2018-12-21T02:23:03.112Z,83.80
2018-12-21T02:25:30.739Z,83.90
2018-12-21T02:27:58.349Z,84.00
2018-12-21T02:32:53.793Z,83.90
2018-12-21T02:35:21.444Z,84.00
2018-12-21T02:37:50.673Z,84.10
2018-12-21T02:40:19.970Z,83.90
2018-12-21T02:42:48.094Z,83.70
2018-12-21T02:45:15.803Z,83.80
2018-12-21T02:52:39.124Z,84.00
2018-12-21T02:57:34.427Z,83.80
2018-12-21T03:00:02.111Z,83.80
2018-12-21T03:02:29.719Z,83.70
2018-12-21T03:04:57.348Z,83.70
2018-12-21T03:07:25.182Z,83.50
2018-12-21T03:09:52.818Z,83.90
2018-12-21T03:12:20.438Z,84.00
2018-12-21T03:14:49.574Z,84.10
2018-12-21T03:17:17.629Z,86.30
2018-12-21T03:19:45.256Z,83.80
2018-12-21T03:22:15.075Z,83.80
2018-12-21T03:27:10.307Z,83.80
2018-12-21T03:29:39.358Z,83.90
2018-12-21T03:32:07.009Z,83.90
2018-12-21T03:34:34.597Z,83.90
2018-12-21T03:37:02.466Z,83.80
2018-12-21T03:41:57.809Z,83.90
2018-12-21T03:44:25.543Z,83.90
2018-12-21T03:46:53.106Z,84.10
2018-12-21T03:54:16.334Z,83.90
2018-12-21T03:56:44.037Z,83.80
2018-12-21T04:01:39.573Z,84.10
2018-12-21T04:04:07.157Z,83.90
2018-12-21T04:06:34.873Z,83.90
2018-12-21T04:11:30.147Z,84.00
2018-12-21T04:13:57.860Z,83.90
2018-12-21T04:18:53.404Z,83.80
2018-12-21T04:23:49.874Z,83.60
2018-12-21T04:26:17.729Z,83.90
2018-12-21T04:28:45.888Z,83.90
2018-12-21T04:31:13.491Z,83.60
2018-12-21T04:38:36.532Z,83.80
2018-12-21T04:43:31.870Z,83.70
2018-12-21T04:45:59.563Z,83.60
2018-12-21T04:48:27.180Z,83.50
2018-12-21T04:50:54.878Z,83.50
2018-12-21T04:53:22.694Z,83.40
2018-12-21T04:55:50.339Z,83.60
2018-12-21T04:58:18.387Z,83.50
2018-12-21T05:00:46.310Z,83.50
2018-12-21T05:03:14.157Z,83.40
2018-12-21T05:05:41.868Z,83.10
2018-12-21T05:08:09.504Z,83.60
2018-12-21T05:10:37.157Z,86.00
2018-12-21T05:13:05.005Z,83.70
2018-12-21T05:15:32.630Z,83.70
2018-12-21T05:18:00.205Z,83.80
2018-12-21T05:20:28.007Z,83.80
2018-12-21T05:22:55.650Z,83.90
2018-12-21T05:27:51.243Z,83.60
2018-12-21T05:32:50.400Z,83.60
2018-12-21T05:37:47.217Z,83.90
2018-12-21T05:40:15.442Z,83.80
2018-12-21T05:42:43.326Z,83.90
2018-12-21T05:45:10.941Z,83.80
2018-12-21T05:47:39.859Z,83.90
2018-12-21T05:50:07.518Z,83.70
2018-12-21T05:52:35.212Z,83.70
2018-12-21T05:59:58.306Z,83.60
2018-12-21T06:02:25.929Z,83.50
2018-12-21T06:04:53.842Z,83.10
2018-12-21T06:09:49.529Z,83.20
2018-12-21T06:12:17.604Z,83.40
2018-12-21T06:14:45.238Z,83.50
2018-12-21T06:17:12.848Z,83.40
2018-12-21T06:19:41.456Z,83.40
2018-12-21T06:24:36.677Z,83.40
2018-12-21T06:27:04.365Z,83.40
2018-12-21T06:29:31.947Z,83.30
2018-12-21T06:31:59.535Z,83.50
2018-12-21T06:36:54.984Z,85.20
2018-12-21T06:39:22.707Z,83.50
2018-12-21T06:41:50.564Z,83.10
2018-12-21T06:49:14.142Z,83.10
2018-12-21T06:59:05.043Z,83.20
2018-12-21T07:16:20.004Z,83.40
2018-12-21T07:28:39.024Z,82.80
2018-12-21T07:33:34.428Z,82.90
2018-12-21T07:38:31.662Z,82.70
2018-12-21T07:55:46.357Z,83.10
2018-12-21T08:00:41.897Z,83.10
2018-12-21T08:15:27.858Z,83.20
2018-12-21T08:20:23.216Z,83.10
2018-12-21T08:27:47.002Z,83.20
2018-12-21T08:30:14.624Z,83.30
2018-12-21T08:32:43.101Z,83.40
2018-12-21T08:37:38.570Z,83.50
2018-12-21T08:40:07.846Z,83.60
2018-12-21T08:42:35.427Z,83.60
2018-12-21T08:45:03.172Z,83.50
2018-12-21T08:47:30.853Z,83.40
2018-12-21T08:49:58.462Z,83.50
2018-12-21T08:52:26.150Z,83.40
2018-12-21T08:54:54.026Z,83.20
2018-12-21T08:57:21.604Z,83.30
2018-12-21T09:02:17.029Z,83.20
2018-12-21T09:04:44.620Z,83.20
2018-12-21T09:07:12.224Z,83.40
2018-12-21T09:09:40.150Z,83.40
2018-12-21T09:12:08.062Z,83.70
2018-12-21T09:14:35.640Z,83.60
2018-12-21T09:19:31.128Z,83.60
2018-12-21T09:22:00.548Z,83.50
2018-12-21T09:24:28.250Z,83.60
2018-12-21T09:26:56.166Z,83.80
2018-12-21T09:29:23.797Z,83.90
2018-12-21T09:31:51.558Z,84.10
2018-12-21T09:34:20.146Z,84.10
2018-12-21T09:36:48.887Z,83.80
2018-12-21T09:39:16.743Z,83.70
2018-12-21T09:41:44.318Z,83.60
2018-12-21T09:44:11.895Z,83.60
2018-12-21T09:46:39.634Z,83.60
2018-12-21T09:49:07.336Z,83.60
2018-12-21T09:51:34.912Z,83.60
2018-12-21T09:54:09.937Z,83.60
2018-12-21T09:56:32.329Z,83.90
2018-12-21T09:58:59.971Z,84.10
2018-12-21T10:01:27.874Z,84.40
2018-12-21T10:06:23.338Z,83.60
2018-12-21T10:08:51.041Z,83.70
2018-12-21T10:11:18.936Z,83.70
2018-12-21T10:13:46.521Z,83.40
2018-12-21T10:16:14.225Z,83.30
2018-12-21T10:18:42.952Z,83.10
2018-12-21T10:21:10.599Z,83.00
2018-12-21T10:28:33.527Z,82.70
2018-12-21T10:31:01.436Z,82.40
2018-12-21T10:33:29.033Z,82.40
2018-12-21T10:35:56.608Z,82.50
2018-12-21T10:38:24.431Z,84.60
2018-12-21T10:40:52.028Z,82.30
2018-12-21T10:43:19.612Z,82.20
2018-12-21T10:45:48.036Z,82.70
2018-12-21T10:48:16.837Z,82.10
2018-12-21T10:53:12.334Z,81.80
2018-12-21T10:55:39.912Z,81.30
2018-12-21T10:58:07.544Z,81.20
2018-12-21T11:00:35.438Z,81.20
2018-12-21T11:03:03.305Z,81.50
2018-12-21T11:05:31.208Z,82.10
2018-12-21T11:07:59.017Z,80.90
2018-12-21T11:10:26.598Z,82.20
2018-12-21T11:12:54.226Z,81.50
2018-12-21T11:15:22.021Z,81.30
2018-12-21T11:17:49.686Z,80.90
2018-12-21T11:20:17.325Z,81.10
2018-12-21T11:22:45.208Z,81.00
2018-12-21T11:25:12.800Z,81.70
2018-12-21T11:27:40.383Z,80.50
2018-12-21T11:30:09.034Z,80.30
2018-12-21T11:32:36.610Z,80.40
2018-12-21T11:35:04.425Z,80.40
2018-12-21T11:37:32.216Z,80.30
2018-12-21T11:39:59.807Z,80.60
2018-12-21T11:42:27.431Z,80.30
2018-12-21T11:44:55.268Z,80.20
2018-12-21T11:47:22.857Z,80.30
2018-12-21T11:49:50.484Z,80.50
2018-12-21T11:52:18.423Z,80.10
2018-12-21T11:54:46.019Z,80.00
2018-12-21T11:57:13.628Z,79.70
2018-12-21T11:59:45.061Z,79.60
2018-12-21T12:02:19.295Z,80.20
2018-12-21T12:04:40.583Z,79.80
2018-12-21T12:07:08.428Z,79.40
2018-12-21T12:09:36.034Z,79.40
2018-12-21T12:12:03.685Z,79.40
2018-12-21T12:14:31.476Z,79.20
2018-12-21T12:16:59.085Z,79.20
2018-12-21T12:19:26.692Z,79.70
2018-12-21T12:24:22.101Z,79.90
2018-12-21T12:29:17.604Z,79.20
2018-12-21T12:44:04.147Z,79.70
2018-12-21T12:46:31.769Z,79.70
2018-12-21T12:48:59.362Z,79.40
2018-12-21T12:51:27.073Z,79.00
2018-12-21T12:53:54.697Z,79.30
2018-12-21T12:56:22.275Z,78.90
2018-12-21T13:03:46.322Z,79.50
2018-12-21T13:06:14.030Z,78.90
2018-12-21T13:08:41.652Z,79.00
2018-12-21T13:13:37.040Z,78.90
2018-12-21T13:16:04.688Z,78.80
2018-12-21T13:18:32.324Z,79.00
2018-12-21T13:28:23.141Z,79.00
2018-12-21T13:40:41.451Z,79.30
2018-12-21T13:45:36.850Z,78.70
2018-12-21T13:52:59.783Z,80.60
2018-12-21T13:57:55.060Z,78.70
2018-12-21T14:07:47.867Z,78.60
2018-12-21T14:22:35.332Z,78.70
2018-12-21T14:32:26.409Z,78.90
2018-12-21T14:37:21.781Z,79.10
2018-12-21T14:42:17.180Z,78.90
2018-12-21T14:47:13.301Z,79.00
2018-12-21T14:49:41.056Z,79.20
2018-12-21T14:52:08.655Z,79.30
2018-12-21T14:54:36.265Z,79.20
2018-12-21T14:57:04.058Z,79.00
2018-12-21T14:59:31.690Z,79.00
2018-12-21T15:01:59.269Z,79.30
2018-12-21T15:04:27.057Z,79.30
2018-12-21T15:06:54.641Z,79.30
2018-12-21T15:09:22.200Z,79.20
2018-12-21T15:11:49.903Z,79.20
2018-12-21T15:16:47.499Z,79.20
2018-12-21T15:19:15.366Z,78.80
2018-12-21T15:21:42.979Z,78.60
2018-12-21T15:24:10.599Z,78.60
2018-12-21T15:26:38.383Z,78.70
2018-12-21T15:29:05.989Z,78.70
2018-12-21T15:31:33.569Z,78.60
2018-12-21T15:34:01.457Z,78.80
2018-12-21T15:36:29.164Z,78.80
2018-12-21T15:38:56.735Z,79.00
2018-12-21T15:43:52.331Z,78.90
2018-12-21T15:46:19.928Z,78.90
2018-12-21T15:53:42.984Z,79.00
2018-12-21T15:56:10.662Z,79.00
2018-12-21T15:58:38.222Z,79.20
2018-12-21T16:01:06.088Z,79.00
2018-12-21T16:03:33.767Z,79.20
2018-12-21T16:06:01.361Z,79.30
2018-12-21T16:15:51.974Z,79.00
2018-12-21T16:18:20.607Z,78.70
2018-12-21T16:20:49.386Z,78.70
2018-12-21T16:23:16.948Z,79.10
2018-12-21T16:25:44.635Z,78.80
2018-12-21T16:28:12.249Z,78.80
2018-12-21T16:45:26.157Z,78.60
2018-12-21T16:47:53.873Z,78.50
2018-12-21T16:50:21.463Z,78.50
2018-12-21T16:52:49.327Z,78.40
2018-12-21T16:57:45.251Z,78.50
2018-12-21T17:00:13.231Z,78.40
2018-12-21T17:02:40.998Z,78.30
2018-12-21T17:10:07.261Z,78.20
2018-12-21T17:15:02.430Z,79.90
2018-12-21T17:29:49.126Z,78.20
2018-12-21T17:37:12.457Z,77.90
2018-12-21T17:39:40.162Z,78.50
2018-12-21T17:42:07.820Z,78.20
2018-12-21T17:49:31.316Z,78.20
2018-12-21T17:54:28.740Z,78.20
2018-12-21T17:56:56.335Z,78.20
2018-12-21T18:11:43.737Z,78.30
2018-12-21T18:29:01.525Z,78.30
2018-12-21T18:31:29.491Z,78.50
2018-12-21T18:33:57.545Z,78.60
2018-12-21T18:36:25.179Z,78.50
2018-12-21T18:38:52.944Z,78.20
2018-12-21T18:43:49.047Z,77.90
2018-12-21T18:46:16.893Z,78.20
2018-12-21T18:48:44.508Z,78.30
2018-12-21T18:58:35.533Z,78.20
2018-12-21T19:03:30.892Z,77.60
2018-12-21T19:05:58.657Z,77.60
2018-12-21T19:08:26.345Z,77.90
2018-12-21T19:15:50.054Z,77.80
2018-12-21T19:18:18.386Z,77.80
2018-12-21T19:20:46.002Z,77.90
2018-12-21T19:23:13.690Z,77.80
2018-12-21T19:25:41.255Z,77.80
2018-12-21T19:30:36.823Z,77.40
2018-12-21T19:42:55.161Z,77.60
2018-12-21T19:47:50.529Z,77.40
2018-12-21T19:50:18.690Z,77.20
2018-12-21T19:52:46.529Z,77.00
2018-12-21T19:55:18.405Z,77.80
2018-12-21T19:57:45.975Z,77.70
2018-12-21T20:00:13.812Z,77.70
2018-12-21T20:02:41.422Z,77.20
2018-12-21T20:05:09.043Z,77.40
2018-12-21T20:07:36.873Z,77.50
2018-12-21T20:10:07.193Z,77.30
2018-12-21T20:12:34.777Z,77.90
2018-12-21T20:15:02.578Z,77.60
2018-12-21T20:17:30.281Z,77.80
2018-12-21T20:19:57.924Z,77.80
2018-12-21T20:24:53.290Z,77.50
2018-12-21T20:27:20.895Z,77.20
2018-12-21T20:29:49.257Z,77.40
2018-12-21T20:32:16.841Z,77.30
2018-12-21T20:34:44.449Z,77.90
2018-12-21T20:37:12.403Z,75.00
2018-12-21T20:39:40.262Z,77.20
2018-12-21T20:42:07.995Z,77.50
2018-12-21T20:44:35.680Z,78.20
2018-12-21T20:47:03.305Z,78.10
2018-12-21T20:49:31.725Z,77.60
2018-12-21T20:51:59.417Z,77.20
2018-12-21T20:54:27.004Z,76.80
2018-12-21T20:56:54.878Z,76.70
2018-12-21T20:59:22.882Z,77.40
2018-12-21T21:01:51.499Z,76.70
2018-12-21T21:04:19.331Z,76.90
2018-12-21T21:06:47.942Z,77.20
2018-12-21T21:09:15.987Z,77.20
2018-12-21T21:11:43.613Z,77.10
2018-12-21T21:14:11.422Z,77.20
2018-12-21T21:16:38.990Z,77.10
2018-12-21T21:19:06.568Z,77.20
2018-12-21T21:21:34.359Z,77.50
2018-12-21T21:24:01.962Z,78.20
2018-12-21T21:26:29.543Z,78.10
2018-12-21T21:28:57.300Z,77.30
2018-12-21T21:31:25.169Z,77.90
2018-12-21T21:33:52.762Z,77.00
2018-12-21T21:36:20.581Z,77.20
2018-12-21T21:38:49.713Z,77.80
2018-12-21T21:41:17.931Z,77.80
2018-12-21T21:43:45.637Z,77.30
2018-12-21T21:46:13.218Z,77.30
2018-12-21T21:48:41.656Z,77.30
2018-12-21T21:51:09.442Z,77.40
2018-12-21T21:53:37.059Z,77.60
2018-12-21T21:56:04.685Z,77.60
2018-12-21T21:58:32.528Z,77.50
2018-12-21T22:01:00.230Z,77.50
2018-12-21T22:03:27.801Z,77.20
2018-12-21T22:05:55.524Z,76.30
2018-12-21T22:08:23.153Z,79.50
2018-12-21T22:10:51.300Z,79.50
2018-12-21T22:13:19.901Z,79.50
2018-12-21T22:15:47.757Z,77.50
2018-12-21T22:18:15.327Z,78.10
2018-12-21T22:20:43.067Z,77.60
2018-12-21T22:23:10.654Z,77.60
2018-12-21T22:25:38.314Z,79.90
2018-12-21T22:33:01.140Z,77.60
2018-12-21T22:35:28.907Z,77.70
2018-12-21T22:37:56.683Z,77.40
2018-12-21T22:40:24.267Z,77.30
2018-12-21T22:42:52.899Z,78.00
2018-12-21T22:45:20.527Z,77.60
2018-12-21T22:47:48.492Z,77.50
2018-12-21T22:50:16.270Z,77.60
2018-12-21T22:52:43.861Z,78.20
2018-12-21T22:55:11.476Z,77.30
2018-12-21T22:57:39.165Z,77.50
2018-12-21T23:00:10.747Z,77.40
2018-12-21T23:02:38.312Z,78.10
2018-12-21T23:05:06.254Z,77.50
2018-12-21T23:07:33.876Z,78.20
2018-12-21T23:10:01.480Z,77.70
2018-12-21T23:12:29.320Z,77.50
2018-12-21T23:14:56.914Z,77.70
2018-12-21T23:17:24.529Z,77.90
2018-12-21T23:19:52.631Z,77.80
2018-12-21T23:22:20.236Z,77.80
2018-12-21T23:24:48.580Z,77.80
2018-12-21T23:27:16.336Z,77.70
2018-12-21T23:29:44.156Z,77.40
2018-12-21T23:39:34.803Z,77.50
2018-12-21T23:42:02.541Z,76.60
2018-12-21T23:44:30.183Z,76.40
2018-12-21T23:46:57.795Z,77.30
2018-12-21T23:49:25.643Z,77.50
2018-12-21T23:54:20.847Z,77.60
2018-12-21T23:56:48.763Z,77.60
2018-12-21T23:59:16.346Z,77.50
